Time;durP1;ratioP1;P1;durP2;ratioP2;P2;SDS_P1;SDS_P2;PMS_P1;PMS_P2;Temp;Humidity;BMP_temperature;BMP_pressure;BME280_temperature;BME280_humidity;BME280_pressure;Samples;Min_cycle;Max_cycle;Signal;HPM_P1;HPM_P2
2021/04/29 00:02:32;;;;;;;2.14;1.80;;;;;;;19.15;43.30;99054.57;;;;-51
2021/04/29 00:05:32;;;;;;;2.36;1.81;;;;;;;19.15;43.34;99050.04;;;;-50
2021/04/29 00:08:32;;;;;;;1.79;1.69;;;;;;;19.14;43.35;99044.62;;;;-50
2021/04/29 00:11:32;;;;;;;2.10;1.84;;;;;;;19.13;43.37;99039.01;;;;-50
2021/04/29 00:14:32;;;;;;;1.79;1.69;;;;;;;19.13;43.36;99036.10;;;;-50
2021/04/29 00:17:32;;;;;;;1.97;1.81;;;;;;;19.12;43.35;99038.39;;;;-50
2021/04/29 00:20:32;;;;;;;1.80;1.70;;;;;;;19.11;43.36;99043.42;;;;-51
2021/04/29 00:23:32;;;;;;;1.73;1.63;;;;;;;19.11;43.36;99049.13;;;;-50
2021/04/29 00:26:32;;;;;;;1.99;1.79;;;;;;;19.09;43.38;99045.51;;;;-50
2021/04/29 00:29:32;;;;;;;1.71;1.60;;;;;;;19.09;43.40;99050.86;;;;-51
2021/04/29 00:32:32;;;;;;;1.79;1.61;;;;;;;19.08;43.39;99050.47;;;;-50
2021/04/29 00:35:32;;;;;;;1.72;1.61;;;;;;;19.07;43.43;99055.44;;;;-51
2021/04/29 00:38:32;;;;;;;1.95;1.70;;;;;;;19.07;43.37;99054.45;;;;-50
2021/04/29 00:41:32;;;;;;;2.40;1.75;;;;;;;19.06;43.38;99055.03;;;;-51
2021/04/29 00:44:32;;;;;;;1.81;1.71;;;;;;;19.06;43.40;99056.25;;;;-50
2021/04/29 00:47:32;;;;;;;1.85;1.64;;;;;;;19.05;43.42;99058.47;;;;-50
2021/04/29 00:50:32;;;;;;;1.86;1.70;;;;;;;19.05;43.41;99057.31;;;;-51
2021/04/29 00:53:32;;;;;;;1.65;1.55;;;;;;;19.04;43.40;99055.00;;;;-50
2021/04/29 00:56:32;;;;;;;1.57;1.47;;;;;;;19.03;43.45;99056.06;;;;-51
2021/04/29 00:59:32;;;;;;;1.58;1.48;;;;;;;19.03;43.42;99057.22;;;;-50
2021/04/29 01:02:32;;;;;;;1.96;1.64;;;;;;;19.02;43.47;99057.28;;;;-50
2021/04/29 01:05:32;;;;;;;1.80;1.69;;;;;;;19.01;43.46;99058.94;;;;-50
2021/04/29 01:08:32;;;;;;;1.84;1.71;;;;;;;19.01;43.39;99068.20;;;;-50
2021/04/29 01:11:32;;;;;;;1.77;1.60;;;;;;;19.01;43.47;99071.86;;;;-50
2021/04/29 01:14:32;;;;;;;1.72;1.62;;;;;;;19.00;43.50;99075.59;;;;-46
2021/04/29 01:17:32;;;;;;;1.73;1.63;;;;;;;18.99;43.47;99067.73;;;;-46
2021/04/29 01:20:32;;;;;;;1.80;1.70;;;;;;;18.98;43.44;99069.67;;;;-46
2021/04/29 01:23:32;;;;;;;1.70;1.60;;;;;;;18.98;43.49;99070.98;;;;-46
2021/04/29 01:26:32;;;;;;;1.70;1.60;;;;;;;18.97;43.50;99070.69;;;;-47
2021/04/29 01:29:32;;;;;;;1.67;1.57;;;;;;;18.96;43.53;99072.78;;;;-47
2021/04/29 01:32:32;;;;;;;1.70;1.60;;;;;;;18.96;43.50;99074.58;;;;-48
2021/04/29 01:35:32;;;;;;;1.96;1.81;;;;;;;18.95;43.51;99074.92;;;;-47
2021/04/29 01:38:32;;;;;;;1.84;1.67;;;;;;;18.95;43.53;99073.08;;;;-48
2021/04/29 01:41:32;;;;;;;1.73;1.63;;;;;;;18.94;43.51;99076.07;;;;-48
2021/04/29 01:44:32;;;;;;;1.70;1.60;;;;;;;18.93;43.54;99084.38;;;;-48
2021/04/29 01:47:34;;;;;;;1.80;1.70;;;;;;;18.93;43.56;99088.28;;;;-48
2021/04/29 01:50:32;;;;;;;2.12;1.65;;;;;;;18.93;43.56;99086.33;;;;-48
2021/04/29 01:53:32;;;;;;;1.63;1.53;;;;;;;18.92;43.57;99088.67;;;;-47
2021/04/29 01:56:32;;;;;;;1.89;1.58;;;;;;;18.92;43.55;99099.06;;;;-47
2021/04/29 01:59:32;;;;;;;2.43;1.73;;;;;;;18.91;43.56;99103.88;;;;-47
2021/04/29 02:02:32;;;;;;;1.85;1.74;;;;;;;18.91;43.58;99102.67;;;;-47
2021/04/29 02:05:32;;;;;;;1.97;1.68;;;;;;;18.90;43.58;99107.85;;;;-48
2021/04/29 02:08:32;;;;;;;1.91;1.69;;;;;;;18.90;43.61;99111.35;;;;-47
2021/04/29 02:11:32;;;;;;;2.09;1.70;;;;;;;18.89;43.57;99115.42;;;;-48
2021/04/29 02:14:32;;;;;;;1.87;1.77;;;;;;;18.88;43.62;99114.88;;;;-47
2021/04/29 02:17:32;;;;;;;1.79;1.69;;;;;;;18.88;43.58;99125.90;;;;-48
2021/04/29 02:20:32;;;;;;;1.77;1.67;;;;;;;18.88;43.62;99134.25;;;;-48
2021/04/29 02:23:32;;;;;;;1.73;1.63;;;;;;;18.87;43.64;99136.39;;;;-48
2021/04/29 02:26:32;;;;;;;1.69;1.59;;;;;;;18.87;43.62;99130.15;;;;-48
2021/04/29 02:29:32;;;;;;;1.83;1.70;;;;;;;18.86;43.60;99126.48;;;;-48
2021/04/29 02:32:33;;;;;;;1.79;1.60;;;;;;;18.86;43.61;99127.30;;;;-48
2021/04/29 02:35:32;;;;;;;1.72;1.61;;;;;;;18.85;43.61;99119.86;;;;-48
2021/04/29 02:38:32;;;;;;;1.75;1.65;;;;;;;18.84;43.65;99115.08;;;;-48
2021/04/29 02:41:32;;;;;;;1.78;1.68;;;;;;;18.84;43.66;99115.65;;;;-47
2021/04/29 02:44:32;;;;;;;1.70;1.60;;;;;;;18.83;43.69;99117.20;;;;-48
2021/04/29 02:47:32;;;;;;;1.72;1.60;;;;;;;18.83;43.68;99126.78;;;;-48
2021/04/29 02:50:32;;;;;;;1.67;1.57;;;;;;;18.82;43.64;99135.24;;;;-48
2021/04/29 02:53:32;;;;;;;2.40;1.58;;;;;;;18.82;43.63;99145.14;;;;-48
2021/04/29 02:56:33;;;;;;;1.95;1.65;;;;;;;18.82;43.62;99147.66;;;;-47
2021/04/29 02:59:32;;;;;;;1.60;1.50;;;;;;;18.81;43.63;99144.58;;;;-48
2021/04/29 03:02:32;;;;;;;1.65;1.55;;;;;;;18.81;43.66;99143.05;;;;-48
2021/04/29 03:05:32;;;;;;;1.68;1.58;;;;;;;18.80;43.68;99148.74;;;;-48
2021/04/29 03:08:32;;;;;;;1.62;1.49;;;;;;;18.80;43.69;99148.02;;;;-47
2021/04/29 03:11:32;;;;;;;1.72;1.62;;;;;;;18.79;43.71;99152.07;;;;-48
2021/04/29 03:14:32;;;;;;;1.58;1.48;;;;;;;18.79;43.68;99161.56;;;;-48
2021/04/29 03:17:32;;;;;;;1.75;1.65;;;;;;;18.78;43.69;99164.42;;;;-48
2021/04/29 03:20:32;;;;;;;1.71;1.61;;;;;;;18.78;43.67;99166.19;;;;-48
2021/04/29 03:23:32;;;;;;;1.70;1.60;;;;;;;18.77;43.72;99165.84;;;;-48
2021/04/29 03:26:32;;;;;;;1.60;1.50;;;;;;;18.76;43.70;99165.55;;;;-48
2021/04/29 03:29:32;;;;;;;1.61;1.51;;;;;;;18.76;43.66;99163.20;;;;-47
2021/04/29 03:32:32;;;;;;;1.50;1.40;;;;;;;18.76;43.72;99171.73;;;;-47
2021/04/29 03:35:32;;;;;;;1.60;1.50;;;;;;;18.76;43.72;99177.63;;;;-48
2021/04/29 03:38:32;;;;;;;1.65;1.55;;;;;;;18.75;43.68;99182.20;;;;-47
2021/04/29 03:41:32;;;;;;;1.73;1.63;;;;;;;18.74;43.76;99185.72;;;;-47
2021/04/29 03:44:32;;;;;;;1.70;1.60;;;;;;;18.73;43.75;99184.39;;;;-48
2021/04/29 03:47:32;;;;;;;1.57;1.47;;;;;;;18.73;43.73;99187.48;;;;-48
2021/04/29 03:50:32;;;;;;;1.68;1.58;;;;;;;18.73;43.76;99192.67;;;;-48
2021/04/29 03:53:32;;;;;;;1.70;1.60;;;;;;;18.73;43.73;99191.96;;;;-48
2021/04/29 03:56:32;;;;;;;1.70;1.60;;;;;;;18.71;43.70;99193.02;;;;-48
2021/04/29 03:59:32;;;;;;;2.55;1.59;;;;;;;18.72;43.75;99199.10;;;;-48
2021/04/29 04:02:32;;;;;;;1.51;1.41;;;;;;;18.71;43.74;99200.50;;;;-48
2021/04/29 04:05:32;;;;;;;1.65;1.55;;;;;;;18.70;43.76;99208.47;;;;-47
2021/04/29 04:08:32;;;;;;;1.50;1.40;;;;;;;18.70;43.78;99211.06;;;;-47
2021/04/29 04:11:32;;;;;;;1.70;1.60;;;;;;;18.70;43.75;99213.58;;;;-47
2021/04/29 04:14:32;;;;;;;1.70;1.60;;;;;;;18.69;43.72;99216.33;;;;-47
2021/04/29 04:17:32;;;;;;;1.59;1.49;;;;;;;18.69;43.75;99217.71;;;;-47
2021/04/29 04:20:32;;;;;;;1.63;1.53;;;;;;;18.68;43.76;99218.95;;;;-47
2021/04/29 04:23:32;;;;;;;1.69;1.59;;;;;;;18.68;43.73;99219.36;;;;-48
2021/04/29 04:26:32;;;;;;;1.54;1.44;;;;;;;18.69;43.77;99222.43;;;;-47
2021/04/29 04:29:32;;;;;;;1.43;1.33;;;;;;;18.68;43.77;99224.41;;;;-48
2021/04/29 04:32:32;;;;;;;3.48;3.18;;;;;;;18.59;49.62;99224.23;;;;-58
2021/04/29 04:35:32;;;;;;;4.14;3.74;;;;;;;18.51;50.73;99227.39;;;;-59
2021/04/29 04:38:32;;;;;;;4.31;3.91;;;;;;;18.41;52.00;99232.91;;;;-57
2021/04/29 04:41:32;;;;;;;4.93;4.26;;;;;;;18.29;52.88;99236.19;;;;-57
2021/04/29 04:44:32;;;;;;;5.23;4.09;;;;;;;18.19;53.83;99243.33;;;;-57
2021/04/29 04:47:32;;;;;;;5.61;4.48;;;;;;;18.13;53.95;99242.31;;;;-57
2021/04/29 04:50:32;;;;;;;7.23;4.27;;;;;;;18.03;54.11;99238.58;;;;-47
2021/04/29 04:53:32;;;;;;;3.76;3.40;;;;;;;18.06;52.19;99238.65;;;;-47
2021/04/29 04:56:33;;;;;;;5.35;3.42;;;;;;;18.13;51.74;99241.73;;;;-46
2021/04/29 04:59:32;;;;;;;4.01;2.79;;;;;;;18.19;50.99;99248.52;;;;-57
2021/04/29 05:02:32;;;;;;;3.15;2.85;;;;;;;18.25;50.67;99242.54;;;;-56
2021/04/29 05:05:32;;;;;;;3.42;2.63;;;;;;;18.29;50.39;99243.56;;;;-50
2021/04/29 05:08:32;;;;;;;6.19;2.51;;;;;;;18.35;50.34;99248.16;;;;-54
2021/04/29 05:11:32;;;;;;;3.06;2.47;;;;;;;18.36;49.99;99249.50;;;;-54
2021/04/29 05:14:32;;;;;;;3.49;2.44;;;;;;;18.38;49.58;99252.49;;;;-60
2021/04/29 05:17:32;;;;;;;3.69;2.39;;;;;;;18.40;49.49;99258.48;;;;-61
2021/04/29 05:20:34;;;;;;;2.91;2.32;;;;;;;18.41;49.19;99263.59;;;;-61
2021/04/29 05:23:32;;;;;;;2.60;2.40;;;;;;;18.43;48.83;99267.77;;;;-59
2021/04/29 05:26:32;;;;;;;3.54;2.15;;;;;;;18.45;48.72;99269.05;;;;-61
2021/04/29 05:29:32;;;;;;;2.49;2.21;;;;;;;18.48;48.38;99264.58;;;;-60
2021/04/29 05:32:32;;;;;;;2.65;2.32;;;;;;;18.50;48.33;99268.84;;;;-61
2021/04/29 05:35:33;;;;;;;2.35;2.10;;;;;;;18.53;48.09;99273.94;;;;-61
2021/04/29 05:38:32;;;;;;;2.25;2.05;;;;;;;18.56;47.97;99274.41;;;;-61
2021/04/29 05:41:32;;;;;;;2.29;2.09;;;;;;;18.58;47.81;99278.19;;;;-62
2021/04/29 05:44:32;;;;;;;3.26;2.10;;;;;;;18.62;47.88;99275.31;;;;-61
2021/04/29 05:47:32;;;;;;;2.69;1.86;;;;;;;18.65;47.52;99273.09;;;;-61
2021/04/29 05:50:32;;;;;;;2.05;1.90;;;;;;;18.68;47.46;99274.12;;;;-57
2021/04/29 05:53:32;;;;;;;2.23;2.03;;;;;;;18.72;47.45;99270.84;;;;-57
2021/04/29 05:56:32;;;;;;;2.57;1.97;;;;;;;18.75;47.32;99275.85;;;;-53
2021/04/29 05:59:32;;;;;;;2.12;1.88;;;;;;;18.78;47.43;99275.59;;;;-55
2021/04/29 06:02:32;;;;;;;2.33;1.90;;;;;;;18.82;47.17;99278.32;;;;-53
2021/04/29 06:05:32;;;;;;;2.59;1.85;;;;;;;18.84;47.24;99283.34;;;;-62
2021/04/29 06:08:32;;;;;;;2.02;1.89;;;;;;;18.85;47.13;99282.75;;;;-61
2021/04/29 06:11:33;;;;;;;2.62;1.93;;;;;;;18.87;47.06;99282.51;;;;-61
2021/04/29 06:14:32;;;;;;;2.04;1.84;;;;;;;18.90;47.10;99287.98;;;;-60
2021/04/29 06:17:32;;;;;;;2.25;2.05;;;;;;;18.90;46.99;99283.59;;;;-62
2021/04/29 06:20:32;;;;;;;2.10;1.90;;;;;;;18.92;46.93;99283.18;;;;-62
2021/04/29 06:23:33;;;;;;;2.00;1.77;;;;;;;18.93;46.92;99283.67;;;;-62
2021/04/29 06:26:32;;;;;;;2.06;1.83;;;;;;;18.94;46.82;99287.20;;;;-60
2021/04/29 06:29:32;;;;;;;1.80;1.70;;;;;;;18.95;46.75;99293.63;;;;-61
2021/04/29 06:32:32;;;;;;;2.04;1.86;;;;;;;18.95;46.67;99297.20;;;;-61
2021/04/29 06:35:32;;;;;;;1.75;1.65;;;;;;;18.96;46.64;99298.08;;;;-57
2021/04/29 06:38:34;;;;;;;2.24;1.79;;;;;;;18.97;46.60;99304.09;;;;-57
2021/04/29 06:41:32;;;;;;;1.99;1.79;;;;;;;18.98;46.57;99308.28;;;;-57
2021/04/29 06:44:32;;;;;;;2.36;1.86;;;;;;;18.98;46.51;99310.55;;;;-57
2021/04/29 06:47:33;;;;;;;1.81;1.71;;;;;;;18.97;46.42;99307.81;;;;-61
2021/04/29 06:50:32;;;;;;;1.91;1.81;;;;;;;18.98;46.35;99306.88;;;;-62
2021/04/29 06:53:32;;;;;;;1.81;1.68;;;;;;;18.99;46.38;99310.47;;;;-61
2021/04/29 06:56:32;;;;;;;1.83;1.73;;;;;;;18.99;46.27;99313.72;;;;-57
2021/04/29 06:59:32;;;;;;;1.85;1.75;;;;;;;19.00;46.25;99317.93;;;;-57
2021/04/29 07:02:32;;;;;;;1.77;1.67;;;;;;;19.01;46.24;99320.34;;;;-57
2021/04/29 07:05:32;;;;;;;1.70;1.60;;;;;;;19.00;46.20;99322.14;;;;-57
2021/04/29 07:08:32;;;;;;;2.03;1.67;;;;;;;19.00;46.13;99321.50;;;;-57
2021/04/29 07:11:32;;;;;;;1.77;1.50;;;;;;;19.00;46.03;99316.55;;;;-57
2021/04/29 07:14:32;;;;;;;1.61;1.51;;;;;;;19.00;46.00;99315.01;;;;-57
2021/04/29 07:17:32;;;;;;;2.99;1.72;;;;;;;18.99;45.92;99319.31;;;;-57
2021/04/29 07:20:34;;;;;;;1.91;1.70;;;;;;;18.99;45.89;99314.45;;;;-56
2021/04/29 07:23:32;;;;;;;1.80;1.70;;;;;;;18.99;45.87;99319.80;;;;-57
2021/04/29 07:26:33;;;;;;;1.69;1.59;;;;;;;18.98;45.84;99313.88;;;;-55
2021/04/29 07:29:33;;;;;;;3.09;1.75;;;;;;;19.02;46.36;99316.03;;;;-52
2021/04/29 07:32:32;;;;;;;1.81;1.67;;;;;;;19.02;46.62;99317.73;;;;-51
2021/04/29 07:35:32;;;;;;;2.11;1.80;;;;;;;19.04;46.79;99327.47;;;;-50
2021/04/29 07:38:32;;;;;;;4.70;1.70;;;;;;;19.05;46.79;99335.48;;;;-52
2021/04/29 07:41:32;;;;;;;1.83;1.73;;;;;;;19.06;46.77;99337.02;;;;-57
2021/04/29 07:44:32;;;;;;;1.83;1.73;;;;;;;19.08;46.68;99337.66;;;;-52
2021/04/29 07:47:32;;;;;;;1.70;1.60;;;;;;;19.09;46.74;99327.59;;;;-51
2021/04/29 07:50:32;;;;;;;1.74;1.64;;;;;;;19.11;46.66;99329.24;;;;-51
2021/04/29 07:53:32;;;;;;;2.20;1.69;;;;;;;19.12;46.74;99319.84;;;;-58
2021/04/29 07:56:32;;;;;;;2.89;1.83;;;;;;;19.13;46.58;99314.13;;;;-58
2021/04/29 07:59:32;;;;;;;6.33;1.71;;;;;;;19.14;46.47;99323.39;;;;-54
2021/04/29 08:02:32;;;;;;;1.80;1.54;;;;;;;19.13;46.39;99334.58;;;;-54
2021/04/29 08:05:32;;;;;;;1.97;1.74;;;;;;;19.13;46.25;99336.55;;;;-54
2021/04/29 08:08:32;;;;;;;1.70;1.60;;;;;;;19.13;46.19;99331.66;;;;-56
2021/04/29 08:11:32;;;;;;;2.80;1.53;;;;;;;19.12;46.09;99339.55;;;;-54
2021/04/29 08:14:32;;;;;;;2.20;1.65;;;;;;;19.12;46.27;99345.34;;;;-51
2021/04/29 08:17:32;;;;;;;4.15;1.85;;;;;;;19.13;46.66;99350.28;;;;-50
2021/04/29 08:20:32;;;;;;;3.31;1.73;;;;;;;19.14;46.25;99347.99;;;;-52
2021/04/29 08:23:32;;;;;;;4.17;1.85;;;;;;;19.16;46.43;99345.29;;;;-56
2021/04/29 08:26:32;;;;;;;2.51;1.82;;;;;;;19.20;46.76;99346.16;;;;-52
2021/04/29 08:29:32;;;;;;;3.02;1.63;;;;;;;19.23;46.91;99343.67;;;;-54
2021/04/29 08:32:32;;;;;;;4.55;1.67;;;;;;;19.28;46.75;99356.38;;;;-53
2021/04/29 08:35:32;;;;;;;5.15;1.90;;;;;;;19.34;46.85;99352.58;;;;-58
2021/04/29 08:38:32;;;;;;;2.65;1.69;;;;;;;19.38;46.62;99362.52;;;;-62
2021/04/29 08:41:32;;;;;;;2.37;1.70;;;;;;;19.43;46.53;99363.92;;;;-57
2021/04/29 08:44:32;;;;;;;8.45;1.71;;;;;;;19.51;46.79;99358.05;;;;-51
2021/04/29 08:47:32;;;;;;;2.39;1.50;;;;;;;19.55;46.46;99365.33;;;;-59
2021/04/29 08:50:34;;;;;;;2.21;1.65;;;;;;;19.57;46.01;99364.27;;;;-51
2021/04/29 08:53:32;;;;;;;1.93;1.64;;;;;;;19.65;46.80;99366.43;;;;-55
2021/04/29 08:56:32;;;;;;;2.26;1.60;;;;;;;19.69;46.76;99369.72;;;;-54
2021/04/29 08:59:32;;;;;;;3.52;1.71;;;;;;;19.74;46.83;99363.91;;;;-51
2021/04/29 09:02:32;;;;;;;2.07;1.72;;;;;;;19.77;46.93;99379.30;;;;-52
2021/04/29 09:05:33;;;;;;;2.43;1.71;;;;;;;19.84;47.06;99374.95;;;;-51
2021/04/29 09:08:32;;;;;;;1.92;1.62;;;;;;;19.86;46.75;99372.88;;;;-50
2021/04/29 09:11:32;;;;;;;2.84;1.62;;;;;;;19.88;46.54;99368.23;;;;-56
2021/04/29 09:14:32;;;;;;;1.71;1.60;;;;;;;19.91;46.53;99370.47;;;;-49
2021/04/29 09:17:32;;;;;;;1.97;1.59;;;;;;;19.93;46.81;99366.27;;;;-57
2021/04/29 09:20:32;;;;;;;4.03;1.50;;;;;;;19.96;46.82;99368.91;;;;-46
2021/04/29 09:23:32;;;;;;;2.08;1.69;;;;;;;19.96;46.44;99373.73;;;;-62
2021/04/29 09:26:32;;;;;;;3.71;1.57;;;;;;;19.96;46.15;99374.84;;;;-61
2021/04/29 09:29:32;;;;;;;4.57;1.62;;;;;;;19.95;46.13;99369.09;;;;-62
2021/04/29 09:32:32;;;;;;;4.43;1.81;;;;;;;19.90;46.18;99372.59;;;;-50
2021/04/29 09:35:32;;;;;;;2.97;1.81;;;;;;;19.87;46.02;99380.89;;;;-51
2021/04/29 09:38:32;;;;;;;1.90;1.70;;;;;;;19.86;46.03;99388.42;;;;-53
2021/04/29 09:41:32;;;;;;;4.53;1.77;;;;;;;19.84;46.24;99393.47;;;;-56
2021/04/29 09:44:32;;;;;;;2.48;1.81;;;;;;;19.86;46.01;99394.98;;;;-52
2021/04/29 09:47:32;;;;;;;4.71;1.72;;;;;;;19.87;45.85;99400.17;;;;-53
2021/04/29 09:50:32;;;;;;;1.72;1.53;;;;;;;19.88;45.76;99405.79;;;;-52
2021/04/29 09:53:32;;;;;;;1.91;1.56;;;;;;;19.87;45.64;99404.15;;;;-53
2021/04/29 09:56:32;;;;;;;1.63;1.53;;;;;;;19.88;45.49;99406.77;;;;-52
2021/04/29 09:59:32;;;;;;;1.95;1.50;;;;;;;19.87;45.46;99401.22;;;;-51
2021/04/29 10:02:32;;;;;;;2.45;1.73;;;;;;;19.86;45.41;99393.45;;;;-50
2021/04/29 10:05:36;;;;;;;1.81;1.60;;;;;;;19.87;45.33;99390.09;;;;-50
2021/04/29 10:08:34;;;;;;;2.65;1.66;;;;;;;19.86;45.27;99392.47;;;;-50
2021/04/29 10:11:32;;;;;;;1.73;1.61;;;;;;;19.86;45.31;99387.01;;;;-60
2021/04/29 10:14:32;;;;;;;1.81;1.71;;;;;;;19.85;45.22;99386.13;;;;-52
2021/04/29 10:17:32;;;;;;;1.79;1.65;;;;;;;19.84;45.21;99384.53;;;;-50
2021/04/29 10:20:32;;;;;;;2.61;1.61;;;;;;;19.85;45.14;99387.11;;;;-50
2021/04/29 10:23:32;;;;;;;1.98;1.51;;;;;;;19.84;45.05;99387.30;;;;-53
2021/04/29 10:26:32;;;;;;;2.53;1.75;;;;;;;19.83;45.02;99390.79;;;;-53
2021/04/29 10:29:32;;;;;;;2.97;1.53;;;;;;;19.84;45.06;99395.66;;;;-53
2021/04/29 10:32:32;;;;;;;2.43;1.55;;;;;;;19.83;45.01;99391.69;;;;-50
2021/04/29 10:35:33;;;;;;;1.67;1.57;;;;;;;19.82;44.89;99392.70;;;;-50
2021/04/29 10:38:33;;;;;;;2.59;1.50;;;;;;;19.81;44.94;99392.35;;;;-50
2021/04/29 10:41:32;;;;;;;2.23;1.60;;;;;;;19.80;44.93;99388.80;;;;-50
2021/04/29 10:44:32;;;;;;;1.73;1.61;;;;;;;19.79;44.93;99391.31;;;;-50
2021/04/29 10:47:32;;;;;;;1.68;1.51;;;;;;;19.78;44.87;99387.77;;;;-53
2021/04/29 10:50:32;;;;;;;1.70;1.60;;;;;;;19.78;44.90;99391.27;;;;-53
2021/04/29 10:53:32;;;;;;;2.21;1.56;;;;;;;19.76;44.83;99392.34;;;;-53
2021/04/29 10:56:32;;;;;;;1.51;1.41;;;;;;;19.76;44.82;99388.60;;;;-60
2021/04/29 10:59:32;;;;;;;2.18;1.41;;;;;;;19.75;44.82;99396.34;;;;-61
2021/04/29 11:02:35;;;;;;;1.55;1.45;;;;;;;19.75;44.77;99400.08;;;;-60
2021/04/29 11:05:32;;;;;;;2.71;1.40;;;;;;;19.73;44.82;99393.84;;;;-62
2021/04/29 11:08:32;;;;;;;1.67;1.57;;;;;;;19.72;44.80;99388.34;;;;-60
2021/04/29 11:11:33;;;;;;;2.08;1.50;;;;;;;19.71;44.80;99387.52;;;;-60
2021/04/29 11:14:32;;;;;;;1.58;1.47;;;;;;;19.71;44.85;99389.08;;;;-60
2021/04/29 11:17:32;;;;;;;1.55;1.45;;;;;;;19.69;44.81;99387.17;;;;-60
2021/04/29 11:20:32;;;;;;;2.18;1.40;;;;;;;19.68;44.79;99388.27;;;;-60
2021/04/29 11:23:32;;;;;;;1.59;1.49;;;;;;;19.66;44.81;99384.86;;;;-60
2021/04/29 11:26:32;;;;;;;1.62;1.52;;;;;;;19.66;44.81;99384.14;;;;-60
2021/04/29 11:29:32;;;;;;;1.58;1.48;;;;;;;19.65;44.79;99377.73;;;;-52
2021/04/29 11:32:33;;;;;;;1.65;1.55;;;;;;;19.64;44.79;99381.25;;;;-53
2021/04/29 11:35:33;;;;;;;1.59;1.49;;;;;;;19.63;44.75;99380.44;;;;-50
2021/04/29 11:38:32;;;;;;;1.51;1.41;;;;;;;19.62;44.78;99369.56;;;;-50
2021/04/29 11:41:32;;;;;;;1.98;1.43;;;;;;;19.61;44.75;99369.82;;;;-59
2021/04/29 11:44:32;;;;;;;1.57;1.45;;;;;;;19.60;44.76;99369.00;;;;-61
2021/04/29 11:47:32;;;;;;;1.40;1.30;;;;;;;19.59;44.77;99367.17;;;;-61
2021/04/29 11:50:32;;;;;;;1.63;1.50;;;;;;;19.58;44.79;99362.36;;;;-53
2021/04/29 11:53:32;;;;;;;1.48;1.38;;;;;;;19.57;44.79;99364.33;;;;-53
2021/04/29 11:56:32;;;;;;;1.54;1.40;;;;;;;19.56;44.73;99366.52;;;;-53
2021/04/29 11:59:32;;;;;;;1.61;1.48;;;;;;;19.56;44.76;99371.41;;;;-53
2021/04/29 12:02:32;;;;;;;1.77;1.30;;;;;;;19.55;44.74;99374.92;;;;-62
2021/04/29 12:05:32;;;;;;;1.56;1.46;;;;;;;19.54;44.76;99372.48;;;;-60
2021/04/29 12:08:33;;;;;;;1.61;1.51;;;;;;;19.53;44.77;99376.41;;;;-53
2021/04/29 12:11:32;;;;;;;1.50;1.40;;;;;;;19.53;44.76;99373.14;;;;-60
2021/04/29 12:14:32;;;;;;;1.79;1.31;;;;;;;19.52;44.73;99377.73;;;;-61
2021/04/29 12:17:32;;;;;;;1.55;1.43;;;;;;;19.51;44.74;99378.20;;;;-60
2021/04/29 12:20:32;;;;;;;1.40;1.30;;;;;;;19.50;44.72;99389.02;;;;-60
2021/04/29 12:23:32;;;;;;;1.50;1.40;;;;;;;19.50;44.94;99391.06;;;;-58
2021/04/29 12:26:32;;;;;;;1.62;1.48;;;;;;;19.49;45.08;99389.78;;;;-59
2021/04/29 12:29:32;;;;;;;2.31;1.51;;;;;;;19.49;45.09;99403.52;;;;-59
2021/04/29 12:32:32;;;;;;;2.53;1.51;;;;;;;19.49;45.16;99414.47;;;;-56
2021/04/29 12:35:35;;;;;;;3.54;1.59;;;;;;;19.49;45.30;99401.57;;;;-60
2021/04/29 12:38:32;;;;;;;2.00;1.72;;;;;;;19.49;45.44;99384.41;;;;-53
2021/04/29 12:41:32;;;;;;;4.48;1.49;;;;;;;19.50;45.30;99376.69;;;;-54
2021/04/29 12:44:32;;;;;;;5.53;1.75;;;;;;;19.49;45.25;99377.02;;;;-53
2021/04/29 12:47:32;;;;;;;2.17;1.52;;;;;;;19.49;45.22;99372.00;;;;-53
2021/04/29 12:50:32;;;;;;;2.39;1.45;;;;;;;19.48;45.15;99367.36;;;;-53
2021/04/29 12:53:32;;;;;;;2.99;1.50;;;;;;;19.47;45.12;99363.39;;;;-53
2021/04/29 12:56:32;;;;;;;5.87;1.47;;;;;;;19.47;45.07;99359.09;;;;-53
2021/04/29 12:59:32;;;;;;;1.74;1.60;;;;;;;19.47;45.05;99356.42;;;;-53
2021/04/29 13:02:32;;;;;;;1.65;1.54;;;;;;;19.46;45.01;99359.81;;;;-53
2021/04/29 13:05:32;;;;;;;3.23;1.50;;;;;;;19.46;45.02;99367.47;;;;-53
2021/04/29 13:08:32;;;;;;;2.99;1.52;;;;;;;19.45;44.98;99383.23;;;;-54
2021/04/29 13:11:32;;;;;;;2.31;1.52;;;;;;;19.44;45.01;99403.17;;;;-53
2021/04/29 13:14:32;;;;;;;2.19;1.49;;;;;;;19.44;44.94;99427.38;;;;-54
2021/04/29 13:17:32;;;;;;;1.75;1.40;;;;;;;19.43;44.94;99425.59;;;;-51
2021/04/29 13:20:32;;;;;;;2.27;1.55;;;;;;;19.44;44.91;99434.51;;;;-50
2021/04/29 13:23:32;;;;;;;1.54;1.44;;;;;;;19.44;44.91;99427.13;;;;-50
2021/04/29 13:26:32;;;;;;;1.60;1.50;;;;;;;19.43;44.90;99419.50;;;;-51
2021/04/29 13:29:32;;;;;;;1.60;1.50;;;;;;;19.43;44.88;99418.53;;;;-51
2021/04/29 13:32:32;;;;;;;2.51;1.63;;;;;;;19.42;44.90;99417.87;;;;-51
2021/04/29 13:35:32;;;;;;;1.51;1.41;;;;;;;19.42;44.88;99421.63;;;;-51
2021/04/29 13:38:32;;;;;;;1.65;1.37;;;;;;;19.41;44.89;99413.43;;;;-50
2021/04/29 13:41:32;;;;;;;1.55;1.37;;;;;;;19.40;44.91;99402.88;;;;-51
2021/04/29 13:44:32;;;;;;;1.54;1.42;;;;;;;19.39;44.90;99396.62;;;;-50
2021/04/29 13:47:32;;;;;;;1.50;1.40;;;;;;;19.39;44.90;99396.45;;;;-51
2021/04/29 13:50:32;;;;;;;1.68;1.43;;;;;;;19.39;44.87;99399.72;;;;-51
2021/04/29 13:53:32;;;;;;;1.41;1.31;;;;;;;19.38;44.90;99388.17;;;;-50
2021/04/29 13:56:32;;;;;;;1.88;1.28;;;;;;;19.38;44.84;99382.58;;;;-51
2021/04/29 13:59:32;;;;;;;1.59;1.49;;;;;;;19.37;44.85;99381.45;;;;-51
2021/04/29 14:02:32;;;;;;;1.49;1.39;;;;;;;19.37;44.81;99383.33;;;;-51
2021/04/29 14:05:32;;;;;;;4.76;1.55;;;;;;;19.36;45.05;99383.59;;;;-51
2021/04/29 14:08:33;;;;;;;9.87;1.92;;;;;;;19.36;45.38;99376.52;;;;-47
2021/04/29 14:11:32;;;;;;;10.14;1.81;;;;;;;19.41;45.67;99376.70;;;;-59
2021/04/29 14:14:32;;;;;;;10.01;2.01;;;;;;;19.42;45.47;99375.41;;;;-47
2021/04/29 14:17:32;;;;;;;8.00;1.80;;;;;;;19.43;45.41;99375.37;;;;-54
2021/04/29 14:20:32;;;;;;;3.73;1.78;;;;;;;19.44;45.46;99376.52;;;;-59
2021/04/29 14:23:32;;;;;;;5.08;1.71;;;;;;;19.45;45.43;99371.95;;;;-62
2021/04/29 14:26:32;;;;;;;3.19;1.71;;;;;;;19.46;45.47;99381.10;;;;-60
2021/04/29 14:29:32;;;;;;;4.65;1.90;;;;;;;19.46;45.42;99377.94;;;;-59
2021/04/29 14:32:33;;;;;;;5.67;1.79;;;;;;;19.47;45.33;99372.17;;;;-59
2021/04/29 14:35:32;;;;;;;3.43;1.75;;;;;;;19.46;45.41;99377.54;;;;-53
2021/04/29 14:38:32;;;;;;;7.23;1.75;;;;;;;19.47;45.58;99372.73;;;;-50
2021/04/29 14:41:32;;;;;;;6.14;1.91;;;;;;;19.48;45.46;99372.72;;;;-51
2021/04/29 14:44:32;;;;;;;6.98;1.80;;;;;;;19.50;45.58;99385.12;;;;-48
2021/04/29 14:47:32;;;;;;;6.23;1.63;;;;;;;19.50;45.66;99385.95;;;;-49
2021/04/29 14:50:32;;;;;;;5.38;1.90;;;;;;;19.49;45.68;99389.21;;;;-57
2021/04/29 14:53:32;;;;;;;2.95;1.79;;;;;;;19.49;45.57;99391.08;;;;-59
2021/04/29 14:56:32;;;;;;;3.01;1.80;;;;;;;19.50;45.67;99395.61;;;;-55
2021/04/29 14:59:32;;;;;;;3.88;1.77;;;;;;;19.51;45.59;99397.88;;;;-49
2021/04/29 15:02:32;;;;;;;3.56;1.72;;;;;;;19.50;45.64;99389.20;;;;-58
2021/04/29 15:05:32;;;;;;;5.58;1.80;;;;;;;19.51;45.63;99403.23;;;;-47
2021/04/29 15:08:32;;;;;;;3.07;1.64;;;;;;;19.51;45.70;99398.86;;;;-52
2021/04/29 15:11:35;;;;;;;3.30;1.72;;;;;;;19.51;45.69;99403.33;;;;-55
2021/04/29 15:14:32;;;;;;;6.15;1.80;;;;;;;19.52;45.69;99408.17;;;;-60
2021/04/29 15:17:32;;;;;;;6.79;1.94;;;;;;;19.52;45.37;99400.88;;;;-52
2021/04/29 15:20:32;;;;;;;4.96;1.76;;;;;;;19.52;45.38;99401.27;;;;-57
2021/04/29 15:23:32;;;;;;;3.32;1.73;;;;;;;19.54;45.39;99411.83;;;;-50
2021/04/29 15:26:32;;;;;;;4.90;1.85;;;;;;;19.53;45.50;99411.61;;;;-48
2021/04/29 15:29:32;;;;;;;4.87;1.98;;;;;;;19.53;45.46;99411.61;;;;-59
2021/04/29 15:32:32;;;;;;;3.81;1.69;;;;;;;19.54;45.49;99415.56;;;;-45
2021/04/29 15:35:32;;;;;;;4.15;1.86;;;;;;;19.53;45.52;99419.64;;;;-48
2021/04/29 15:38:32;;;;;;;4.75;1.91;;;;;;;19.54;45.49;99415.24;;;;-57
2021/04/29 15:41:32;;;;;;;2.44;1.69;;;;;;;19.55;45.42;99420.25;;;;-51
2021/04/29 15:44:32;;;;;;;3.39;1.76;;;;;;;19.54;45.45;99416.61;;;;-51
2021/04/29 15:47:32;;;;;;;2.25;1.66;;;;;;;19.55;45.40;99416.05;;;;-52
2021/04/29 15:50:32;;;;;;;2.37;1.72;;;;;;;19.56;45.47;99413.58;;;;-53
2021/04/29 15:53:32;;;;;;;1.98;1.62;;;;;;;19.56;45.47;99412.84;;;;-51
2021/04/29 15:56:32;;;;;;;2.50;1.91;;;;;;;19.57;45.48;99420.17;;;;-47
2021/04/29 15:59:34;;;;;;;2.09;1.72;;;;;;;19.57;45.51;99421.20;;;;-47
2021/04/29 16:02:32;;;;;;;2.82;1.53;;;;;;;19.58;45.42;99423.23;;;;-49
2021/04/29 16:05:32;;;;;;;2.61;1.64;;;;;;;19.57;45.47;99416.10;;;;-49
2021/04/29 16:08:32;;;;;;;1.99;1.61;;;;;;;19.58;45.36;99419.00;;;;-64
2021/04/29 16:11:32;;;;;;;3.08;1.79;;;;;;;19.59;45.40;99420.05;;;;-55
2021/04/29 16:14:32;;;;;;;4.41;1.55;;;;;;;19.60;45.46;99422.80;;;;-57
2021/04/29 16:17:32;;;;;;;2.61;1.70;;;;;;;19.60;45.55;99421.19;;;;-61
2021/04/29 16:20:32;;;;;;;2.64;1.60;;;;;;;19.60;45.44;99425.48;;;;-55
2021/04/29 16:23:32;;;;;;;1.67;1.57;;;;;;;19.60;45.41;99419.48;;;;-57
2021/04/29 16:26:32;;;;;;;3.41;1.73;;;;;;;19.61;45.37;99422.57;;;;-55
2021/04/29 16:29:32;;;;;;;2.20;1.62;;;;;;;19.61;45.41;99427.92;;;;-51
2021/04/29 16:32:32;;;;;;;1.73;1.63;;;;;;;19.62;45.43;99435.08;;;;-51
2021/04/29 16:35:32;;;;;;;2.12;1.60;;;;;;;19.61;45.45;99434.67;;;;-57
2021/04/29 16:38:32;;;;;;;2.06;1.54;;;;;;;19.60;45.62;99440.45;;;;-58
2021/04/29 16:41:32;;;;;;;1.97;1.56;;;;;;;19.60;45.50;99439.70;;;;-60
2021/04/29 16:44:32;;;;;;;2.23;1.76;;;;;;;19.60;45.52;99439.70;;;;-59
2021/04/29 16:47:32;;;;;;;1.87;1.60;;;;;;;19.61;45.57;99443.27;;;;-51
2021/04/29 16:50:32;;;;;;;1.89;1.71;;;;;;;19.62;45.44;99447.10;;;;-58
2021/04/29 16:53:32;;;;;;;1.81;1.69;;;;;;;19.59;45.54;99445.66;;;;-58
2021/04/29 16:56:32;;;;;;;2.35;1.65;;;;;;;19.60;45.24;99445.89;;;;-56